Погода Помонана неделю

Калифорния, США

01 - 07 сентября
  • 01сентября
    Сегодня
    +15°
    +30°
    Ясно и безоблачно
    ВремяПогодаТемператураВлажностьДавлениеВетер, м/сВероятность осадков
    02:00Ясно и безоблачно+18°C78 %739 мм1.7 м/с2 %
    05:00Ясно и безоблачно+17°C86 %738 мм1.1 м/с2 %
    08:00Ясно и безоблачно+18°C78 %739 мм0.8 м/с2 %
    11:00Ясно и безоблачно+25°C46 %739 мм2.0 м/с2 %
    14:00Ясно и безоблачно+29°C31 %738 мм4.6 м/с2 %
    17:00Ясно и безоблачно+29°C30 %738 мм5.5 м/с2 %
    20:00Ясно и безоблачно+22°C46 %738 мм3.9 м/с2 %
    23:00Ясно и безоблачно+19°C64 %739 мм2.7 м/с2 %
  • 02сентября
    Среда
    +16°
    +29°
    Ясно и безоблачно
    ВремяПогодаТемператураВлажностьДавлениеВетер, м/сВероятность осадков
    02:00Ясно и безоблачно+17°C76 %739 мм1.4 м/с2 %
    05:00Ясно и безоблачно+15°C83 %739 мм0.7 м/с2 %
    08:00Ясно и безоблачно+18°C70 %739 мм0.4 м/с2 %
    11:00Ясно и безоблачно+24°C45 %740 мм1.6 м/с2 %
    14:00Ясно и безоблачно+28°C30 %739 мм4.2 м/с2 %
    17:00Ясно и безоблачно+28°C28 %737 мм5.5 м/с2 %
    20:00Ясно и безоблачно+22°C45 %738 мм4.1 м/с2 %
    23:00Ясно и безоблачно+19°C59 %738 мм2.2 м/с2 %
  • 03сентября
    Четверг
    +16°
    +29°
    Ясно и безоблачно
    ВремяПогодаТемператураВлажностьДавлениеВетер, м/сВероятность осадков
    02:00Ясно и безоблачно+18°C67 %738 мм1.2 м/с2 %
    05:00Ясно и безоблачно+16°C75 %737 мм0.7 м/с2 %
    08:00Ясно и безоблачно+18°C70 %738 мм0.5 м/с2 %
    11:00Ясно и безоблачно+24°C48 %738 мм1.5 м/с2 %
    14:00Ясно и безоблачно+28°C37 %737 мм4.3 м/с2 %
    17:00Ясно и безоблачно+28°C39 %736 мм5.2 м/с2 %
    20:00Ясно и безоблачно+22°C62 %736 мм4.2 м/с2 %
    23:00Ясно и безоблачно+19°C74 %737 мм2.4 м/с2 %
  • 04сентября
    Пятница
    +16°
    +30°
    Ясно и безоблачно
    ВремяПогодаТемператураВлажностьДавлениеВетер, м/сВероятность осадков
    02:00Ясно и безоблачно+17°C84 %737 мм1.4 м/с2 %
    05:00Ясно и безоблачно+16°C92 %737 мм0.7 м/с2 %
    08:00Ясно и безоблачно+18°C80 %737 мм0.3 м/с2 %
    11:00Ясно и безоблачно+24°C50 %738 мм1.1 м/с2 %
    14:00Ясно и безоблачно+28°C35 %736 мм4.0 м/с2 %
    17:00Ясно и безоблачно+29°C30 %736 мм4.8 м/с2 %
    20:00Ясно и безоблачно+23°C53 %737 мм3.8 м/с2 %
    23:00Ясно и безоблачно+20°C75 %737 мм2.3 м/с2 %
  • 05сентября
    Суббота
    +19°
    +32°
    Ясно и безоблачно
    ВремяПогодаТемператураВлажностьДавлениеВетер, м/сВероятность осадков
    02:00Ясно и безоблачно+18°C87 %737 мм1.3 м/с4 %
    05:00Ясно и безоблачно+16°C90 %737 мм0.5 м/с8 %
    08:00Ясно и безоблачно+19°C65 %738 мм0.0 м/с12 %
    11:00Ясно и безоблачно+27°C25 %738 мм1.5 м/с15 %
    14:00Ясно и безоблачно+30°C23 %737 мм4.5 м/с22 %
    17:00Ясно и безоблачно+31°C18 %736 мм5.2 м/с27 %
    20:00Ясно и безоблачно+25°C41 %737 мм4.3 м/с17 %
    23:00Небольшая облачность+22°C59 %738 мм2.3 м/с23 %
  • 06сентября
    Воскресенье
    +19°
    +32°
    Ясно и безоблачно
    ВремяПогодаТемператураВлажностьДавлениеВетер, м/сВероятность осадков
    05:00Практически безоблачно+20°C89 %737 мм0.9 м/с28 %
    11:00Ясно и безоблачно+27°C60 %738 мм0.6 м/с30 %
    17:00Ясно и безоблачно+32°C44 %736 мм3.6 м/с43 %
    23:00Ясно и безоблачно+24°C56 %738 мм1.4 м/с26 %
  • 07сентября
    Понедельник
    +17°
    +34°
    Ясно и безоблачно
    ВремяПогодаТемператураВлажностьДавлениеВетер, м/сВероятность осадков
    05:00Ясно и безоблачно+20°C63 %737 мм1.3 м/с18 %
    11:00Ясно и безоблачно+29°C32 %738 мм2.5 м/с23 %
    17:00Ясно и безоблачно+31°C29 %736 мм4.0 м/с29 %
    23:00Ясно и безоблачно+22°C61 %737 мм1.3 м/с16 %
Мы используем cookies
Соглашаюсь